Terminal Aerodrome Forecast
Issued by NWS

Home | Current Version | Previous Version | Text Only | Print | Product List | Glossary On
Versions: 1 2 3 4 5 6 7 8 9 10 11 12 13 14 15
000
FTUS45 KABQ 280533
TAFGUP
TAF
KGUP 280533Z 2806/2906 VRB04KT P6SM SCT100
     FM281800 12008KT P6SM SCT100 SCT250
     FM282100 16010KT P6SM VCTS BKN070CB BKN200
     FM290000 16010KT P6SM VCSH OVC070=

USA.gov is the U.S. government's official web portal to all federal, state and local government web resources and services.